Time;durP1;ratioP1;P1;durP2;ratioP2;P2;SDS_P1;SDS_P2;PMS_P1;PMS_P2;Temp;Humidity;BMP_temperature;BMP_pressure;BME280_temperature;BME280_humidity;BME280_pressure;Samples;Min_cycle;Max_cycle;Signal;HPM_P1;HPM_P2
2022/06/21 00:01:13;;;;;;;5.35;3.17;;;;;;;12.80;87.27;100196.41;5039092;28;20112;-59
2022/06/21 00:03:44;;;;;;;8.23;4.20;;;;;;;12.93;88.41;100191.72;5038118;28;20045;-58
2022/06/21 00:06:20;;;;;;;5.32;3.35;;;;;;;13.00;88.04;100188.00;5039132;28;20053;-58
2022/06/21 00:08:50;;;;;;;5.45;3.40;;;;;;;12.95;87.97;100196.00;5039103;28;20116;-58
2022/06/21 00:11:25;;;;;;;5.80;3.50;;;;;;;13.03;88.41;100197.53;5039713;28;20154;-58
2022/06/21 00:13:58;;;;;;;5.32;3.50;;;;;;;13.09;87.60;100200.88;5039276;28;20329;-58
2022/06/21 00:16:30;;;;;;;6.55;3.72;;;;;;;13.10;87.71;100204.34;5039063;28;20056;-58
2022/06/21 00:19:02;;;;;;;6.63;4.07;;;;;;;13.00;87.45;100192.38;5039177;28;20325;-58
2022/06/21 00:21:36;;;;;;;6.20;3.55;;;;;;;12.94;86.86;100204.75;5038600;28;20053;-58
2022/06/21 00:24:08;;;;;;;9.25;4.68;;;;;;;12.91;87.10;100209.25;5038314;28;20065;-57
2022/06/21 00:26:38;;;;;;;9.45;3.75;;;;;;;12.89;87.67;100211.91;5038686;28;20064;-57
2022/06/21 00:29:11;;;;;;;4.78;3.10;;;;;;;12.99;87.63;100201.16;5038616;28;20064;-58
2022/06/21 00:31:46;;;;;;;5.40;3.22;;;;;;;13.15;87.20;100208.59;5038905;28;20057;-58
2022/06/21 00:34:19;;;;;;;8.68;3.13;;;;;;;13.28;86.94;100203.88;5038855;28;20068;-57
2022/06/21 00:36:51;;;;;;;7.18;3.33;;;;;;;12.92;85.94;100122.66;5038673;28;20104;-58
2022/06/21 00:39:22;;;;;;;5.55;3.00;;;;;;;13.45;85.11;100205.13;5038184;28;20087;-59
2022/06/21 00:41:55;;;;;;;7.15;3.17;;;;;;;13.46;85.09;100180.63;5038453;28;20050;-59
2022/06/21 00:44:34;;;;;;;6.00;3.30;;;;;;;13.29;84.13;100121.63;5038430;28;20176;-58
2022/06/21 00:47:07;;;;;;;7.93;3.13;;;;;;;13.88;82.77;100195.97;5038251;28;20057;-58
2022/06/21 00:49:45;;;;;;;7.75;4.03;;;;;;;13.88;83.01;100194.22;5038141;28;20050;-58
2022/06/21 00:52:20;;;;;;;7.65;3.50;;;;;;;13.95;81.76;100200.13;5037637;28;20060;-59
2022/06/21 00:54:58;;;;;;;4.82;2.97;;;;;;;14.00;81.93;100203.47;5038194;28;20065;-59
2022/06/21 00:57:44;;;;;;;6.35;3.20;;;;;;;14.11;82.05;100205.78;5038068;28;20248;-58
2022/06/21 01:00:33;;;;;;;6.72;3.10;;;;;;;14.12;81.87;100205.72;5037950;28;20060;-58
2022/06/21 01:03:08;;;;;;;6.25;2.72;;;;;;;14.25;81.45;100206.16;5033411;28;20106;-58
2022/06/21 01:05:42;;;;;;;4.97;2.85;;;;;;;14.33;81.52;100209.44;5026545;28;20061;-58
2022/06/21 01:08:16;;;;;;;7.77;2.43;;;;;;;14.39;80.17;100211.00;5017968;28;20392;-58
2022/06/21 01:10:52;;;;;;;5.17;2.50;;;;;;;14.38;80.19;100214.53;5020269;28;20299;-58
2022/06/21 01:13:28;;;;;;;4.87;2.63;;;;;;;14.48;81.06;100209.81;5025315;28;20591;-58
2022/06/21 01:16:01;;;;;;;6.87;2.63;;;;;;;14.62;81.50;100208.47;5027982;28;20343;-59
2022/06/21 01:18:32;;;;;;;6.00;2.93;;;;;;;14.73;81.16;100209.91;5025232;28;20320;-58
2022/06/21 01:21:04;;;;;;;7.43;3.00;;;;;;;14.85;80.86;100209.44;5027621;28;20286;-58
2022/06/21 01:24:00;;;;;;;10.20;3.00;;;;;;;14.88;78.72;100214.63;5026886;28;20380;-59
2022/06/21 01:26:40;;;;;;;6.23;2.27;;;;;;;14.93;78.84;100207.44;5026262;28;20600;-58
2022/06/21 01:29:16;;;;;;;6.33;2.37;;;;;;;15.03;78.69;100203.56;5026956;28;20284;-58
2022/06/21 01:31:48;;;;;;;8.47;2.43;;;;;;;15.14;77.75;100199.69;5028278;28;20300;-57
2022/06/21 01:34:22;;;;;;;3.27;2.33;;;;;;;14.84;77.09;100176.19;5017504;28;20484;-57
2022/06/21 01:36:57;;;;;;;4.03;2.33;;;;;;;14.83;78.14;100222.69;5017576;28;20339;-57
2022/06/21 01:39:31;;;;;;;4.37;2.37;;;;;;;14.78;77.80;100214.09;5017799;28;20292;-58
2022/06/21 01:42:07;;;;;;;4.60;2.30;;;;;;;14.72;78.50;100213.44;5017399;28;20288;-58
2022/06/21 01:44:43;;;;;;;4.17;2.20;;;;;;;14.79;79.24;100222.84;5017444;28;20321;-59
2022/06/21 01:47:19;;;;;;;5.80;2.50;;;;;;;14.75;79.42;100222.09;5018934;28;20319;-58
2022/06/21 01:49:54;;;;;;;5.73;2.70;;;;;;;14.55;78.70;100220.13;5017496;28;20449;-58
2022/06/21 01:52:28;;;;;;;3.63;2.30;;;;;;;14.41;79.13;100211.81;5017368;28;20280;-58
2022/06/21 01:55:03;;;;;;;8.03;2.70;;;;;;;14.35;80.24;100212.00;5017461;28;20292;-58
2022/06/21 01:57:38;;;;;;;5.80;2.57;;;;;;;13.97;79.96;100151.03;5017317;28;20662;-58
2022/06/21 02:00:10;;;;;;;4.70;2.60;;;;;;;13.90;80.76;100128.50;5031486;28;20299;-59
2022/06/21 02:02:44;;;;;;;4.93;2.47;;;;;;;14.56;80.49;100211.31;5040134;28;20716;-58
2022/06/21 02:05:20;;;;;;;3.60;2.37;;;;;;;14.71;80.15;100182.78;5042389;28;20334;-58
2022/06/21 02:07:56;;;;;;;6.50;2.87;;;;;;;14.95;78.59;100200.34;5042485;28;20342;-58
2022/06/21 02:10:32;;;;;;;7.07;2.73;;;;;;;14.91;78.80;100198.72;5042600;28;20276;-58
2022/06/21 02:13:10;;;;;;;8.27;3.33;;;;;;;14.78;78.67;100181.66;5042007;28;20299;-58
2022/06/21 02:15:45;;;;;;;10.00;2.73;;;;;;;14.90;78.81;100191.72;5042121;28;20291;-57
2022/06/21 02:18:18;;;;;;;4.80;2.57;;;;;;;14.98;77.88;100189.72;5042449;28;20298;-57
2022/06/21 02:20:54;;;;;;;7.00;2.70;;;;;;;15.03;78.57;100182.50;5042176;28;20288;-58
2022/06/21 02:23:25;;;;;;;7.63;2.63;;;;;;;15.19;77.56;100189.84;5042508;28;20337;-58
2022/06/21 02:25:58;;;;;;;7.03;3.17;;;;;;;15.13;77.74;100182.19;5041672;28;20311;-58
2022/06/21 02:28:30;;;;;;;4.83;2.33;;;;;;;15.26;77.65;100188.72;5042523;28;20705;-58
2022/06/21 02:31:02;;;;;;;7.63;2.83;;;;;;;15.30;77.49;100171.88;5042221;28;20280;-58
2022/06/21 02:33:35;;;;;;;4.87;2.70;;;;;;;15.44;77.24;100166.09;5003469;28;20300;-58
2022/06/21 02:36:10;;;;;;;8.40;2.87;;;;;;;15.57;75.96;100163.84;5042264;28;20280;-58
2022/06/21 02:38:44;;;;;;;9.90;3.70;;;;;;;15.25;75.89;100102.75;5042176;28;20334;-58
2022/06/21 02:41:26;;;;;;;9.40;3.07;;;;;;;15.76;76.23;100182.47;5042158;28;20303;-58
2022/06/21 02:44:03;;;;;;;6.03;2.70;;;;;;;15.80;75.12;100169.13;5042244;28;20696;-58
2022/06/21 02:46:38;;;;;;;8.17;3.33;;;;;;;16.04;75.77;100171.69;5042251;28;20287;-58
2022/06/21 02:49:17;;;;;;;4.90;3.00;;;;;;;16.04;73.66;100176.97;5041913;28;20280;-60
2022/06/21 02:51:52;;;;;;;6.20;3.08;;;;;;;16.06;74.69;100185.66;5042185;28;20327;-58
2022/06/21 02:54:27;;;;;;;7.97;3.20;;;;;;;16.03;74.08;100191.06;5041879;28;20052;-58
2022/06/21 02:57:02;;;;;;;5.87;2.40;;;;;;;16.04;74.35;100176.97;5042078;28;20287;-58
2022/06/21 02:59:40;;;;;;;6.73;2.87;;;;;;;16.03;74.61;100191.91;5041945;28;20291;-58
2022/06/21 03:02:14;;;;;;;7.13;2.80;;;;;;;16.00;74.04;100186.78;5042484;28;20303;-59
2022/06/21 03:04:49;;;;;;;4.97;2.57;;;;;;;16.04;74.44;100187.50;5042063;28;20302;-58
2022/06/21 03:07:24;;;;;;;8.43;2.93;;;;;;;16.04;75.31;100188.34;5041964;28;20350;-58
2022/06/21 03:09:55;;;;;;;5.53;2.53;;;;;;;16.05;74.29;100189.19;5042201;28;20290;-58
2022/06/21 03:12:28;;;;;;;6.57;3.17;;;;;;;16.04;74.42;100187.50;5042133;28;20287;-58
2022/06/21 03:15:05;;;;;;;5.03;3.00;;;;;;;15.94;74.66;100182.59;5041810;28;20365;-58
2022/06/21 03:17:41;;;;;;;5.83;3.03;;;;;;;16.11;75.62;100184.56;5042147;28;20290;-58
2022/06/21 03:20:17;;;;;;;5.27;2.63;;;;;;;16.31;75.33;100186.38;5041710;28;20298;-59
2022/06/21 03:22:50;;;;;;;4.93;2.87;;;;;;;15.93;74.20;100138.72;5041688;28;20291;-59
2022/06/21 03:25:24;;;;;;;5.10;3.13;;;;;;;16.12;74.63;100181.00;5041552;28;20880;-59
2022/06/21 03:27:57;;;;;;;6.23;3.13;;;;;;;16.02;75.35;100168.25;5041611;28;20295;-59
2022/06/21 03:30:31;;;;;;;4.93;3.20;;;;;;;16.04;76.14;100183.09;5041911;28;20272;-59
2022/06/21 03:33:03;;;;;;;6.07;2.87;;;;;;;15.85;75.79;100150.47;5041620;28;20499;-58
2022/06/21 03:35:36;;;;;;;5.07;3.10;;;;;;;16.01;76.18;100187.63;5041697;28;20288;-58
2022/06/21 03:38:07;;;;;;;5.50;2.73;;;;;;;15.95;74.88;100189.59;5042536;28;20288;-59
2022/06/21 03:43:30;;;;;;;5.87;3.00;;;;;;;15.81;75.98;100202.44;5045211;28;20359;-58
2022/06/21 03:46:08;;;;;;;10.63;3.23;;;;;;;15.64;76.31;100183.75;5043191;28;20322;-60
2022/06/21 03:48:42;;;;;;;7.57;3.77;;;;;;;15.52;76.80;100185.09;5041575;28;20495;-58
2022/06/21 03:51:18;;;;;;;5.53;2.93;;;;;;;15.58;76.70;100199.81;5044968;28;20287;-58
2022/06/21 03:53:53;;;;;;;8.30;3.10;;;;;;;15.48;76.20;100194.88;5042211;28;20316;-58
2022/06/21 03:56:29;;;;;;;6.47;3.50;;;;;;;15.48;77.17;100194.88;5040154;28;20291;-57
2022/06/21 03:59:07;;;;;;;8.13;3.13;;;;;;;15.50;77.70;100192.19;5042645;28;20353;-58
2022/06/21 04:01:45;;;;;;;11.83;3.33;;;;;;;15.65;77.36;100185.47;5043672;28;20470;-59
2022/06/21 04:04:25;;;;;;;7.55;3.55;;;;;;;15.77;76.86;100185.03;5045373;28;20326;-58
2022/06/21 04:07:00;;;;;;;8.20;3.10;;;;;;;15.87;75.88;100185.53;5045286;28;20056;-58
2022/06/21 04:09:38;;;;;;;7.77;3.57;;;;;;;15.90;75.94;100185.41;5045174;28;20053;-58
2022/06/21 04:12:15;;;;;;;9.77;3.30;;;;;;;15.98;76.46;100187.75;5045234;28;20335;-59
2022/06/21 04:14:51;;;;;;;10.00;3.80;;;;;;;16.06;76.15;100191.78;5043091;28;20326;-59
2022/06/21 04:17:30;;;;;;;7.17;3.33;;;;;;;15.82;74.66;100172.53;5042452;28;20292;-59
2022/06/21 04:20:06;;;;;;;6.70;3.13;;;;;;;15.90;75.34;100195.94;5043437;28;20284;-60
2022/06/21 04:22:40;;;;;;;5.97;3.13;;;;;;;15.81;75.14;100198.97;5044659;28;20057;-59
2022/06/21 04:25:15;;;;;;;5.43;2.90;;;;;;;15.75;75.69;100197.44;5045110;28;20337;-59
2022/06/21 04:27:51;;;;;;;5.57;3.13;;;;;;;15.44;75.66;100145.88;5044584;28;20414;-58
2022/06/21 04:30:28;;;;;;;5.90;3.60;;;;;;;15.73;76.57;100204.53;5044887;28;20513;-59
2022/06/21 04:33:07;;;;;;;9.97;3.30;;;;;;;15.81;77.00;100202.44;5045270;28;20590;-58
2022/06/21 04:35:42;;;;;;;4.78;3.33;;;;;;;15.81;77.75;100197.19;5044865;28;20292;-58
2022/06/21 04:38:20;;;;;;;6.53;3.43;;;;;;;15.73;77.58;100189.56;5044695;28;20067;-58
2022/06/21 04:40:58;;;;;;;6.23;3.37;;;;;;;15.72;77.99;100198.41;5044487;28;20284;-58
2022/06/21 04:43:33;;;;;;;7.37;3.27;;;;;;;15.71;76.54;100193.19;5044680;28;20368;-59
2022/06/21 04:46:10;;;;;;;8.83;3.23;;;;;;;15.71;76.95;100191.41;5044502;28;20346;-59
2022/06/21 04:48:48;;;;;;;12.57;4.57;;;;;;;15.85;76.56;100198.78;5043622;28;20499;-58
2022/06/21 04:51:27;;;;;;;11.33;3.60;;;;;;;15.68;76.09;100159.03;5044467;28;20583;-58
2022/06/21 04:54:01;;;;;;;11.15;3.50;;;;;;;15.80;76.28;100200.75;5044473;28;20268;-58
2022/06/21 04:56:39;;;;;;;7.97;3.17;;;;;;;15.73;76.63;100200.09;5044413;28;20052;-61
2022/06/21 04:59:24;;;;;;;7.27;3.00;;;;;;;15.77;76.94;100179.75;5044176;28;20404;-57
2022/06/21 05:01:56;;;;;;;4.33;2.63;;;;;;;15.87;76.64;100199.56;5043985;28;20306;-59
2022/06/21 05:04:32;;;;;;;5.77;3.20;;;;;;;15.71;75.88;100190.56;5044493;28;20301;-58
2022/06/21 05:07:07;;;;;;;8.77;3.37;;;;;;;15.73;76.59;100200.09;5044178;28;20349;-58
2022/06/21 05:09:38;;;;;;;19.60;5.67;;;;;;;15.77;77.09;100206.09;5043653;28;20299;-59
2022/06/21 05:12:14;;;;;;;9.23;4.00;;;;;;;15.78;76.08;100213.09;5043837;28;20341;-59
2022/06/21 05:14:48;;;;;;;7.93;4.40;;;;;;;15.73;75.67;100212.44;5043764;28;20284;-58
2022/06/21 05:17:21;;;;;;;8.70;3.97;;;;;;;15.68;76.69;100216.97;5043798;28;20293;-58
2022/06/21 05:19:56;;;;;;;14.60;4.43;;;;;;;15.39;75.46;100179.44;5044173;28;20387;-58
2022/06/21 05:22:30;;;;;;;8.63;4.27;;;;;;;15.30;76.61;100174.50;5044141;28;20644;-58
2022/06/21 05:25:02;;;;;;;9.03;3.90;;;;;;;15.58;76.37;100226.16;5043950;28;20318;-58
2022/06/21 05:27:42;;;;;;;6.30;4.10;;;;;;;15.54;76.14;100215.72;5043656;28;20382;-59
2022/06/21 05:30:17;;;;;;;11.33;4.47;;;;;;;15.68;75.80;100232.78;5042523;28;20288;-58
2022/06/21 05:32:54;;;;;;;7.00;4.10;;;;;;;15.56;76.17;100222.72;5043403;28;20311;-59
2022/06/21 05:35:28;;;;;;;10.93;4.40;;;;;;;15.64;76.19;100236.44;5043727;28;20283;-59
2022/06/21 05:38:03;;;;;;;7.90;3.90;;;;;;;15.65;76.55;100223.22;5043689;28;20313;-59
2022/06/21 05:40:41;;;;;;;7.63;3.77;;;;;;;15.24;75.49;100169.47;5043564;28;20322;-59
2022/06/21 05:43:16;;;;;;;8.23;3.95;;;;;;;15.56;76.06;100227.97;5043250;28;20286;-59
2022/06/21 05:45:57;;;;;;;7.07;4.47;;;;;;;15.49;77.30;100241.34;5043393;28;20132;-59
2022/06/21 05:48:32;;;;;;;6.47;4.30;;;;;;;15.24;77.29;100211.59;5043599;28;20314;-59
2022/06/21 05:51:07;;;;;;;9.60;4.90;;;;;;;15.36;77.83;100240.09;5043355;28;20283;-59
2022/06/21 05:53:41;;;;;;;8.37;4.60;;;;;;;15.28;77.40;100234.28;5043069;28;20339;-59
2022/06/21 05:56:14;;;;;;;10.70;4.77;;;;;;;15.04;77.08;100231.56;5043091;28;20284;-59
2022/06/21 05:58:48;;;;;;;6.17;4.50;;;;;;;15.05;77.88;100228.06;5042987;28;20288;-59
2022/06/21 06:01:24;;;;;;;6.67;4.47;;;;;;;14.97;78.47;100243.22;5042006;28;20801;-60
2022/06/21 06:04:00;;;;;;;7.57;4.27;;;;;;;14.86;78.08;100232.22;5042356;28;20351;-59
2022/06/21 06:06:36;;;;;;;7.17;4.87;;;;;;;14.83;78.83;100245.50;5043020;28;20322;-59
2022/06/21 06:09:12;;;;;;;8.03;4.40;;;;;;;14.82;79.12;100259.53;5042344;28;20284;-59
2022/06/21 06:12:00;;;;;;;11.10;4.53;;;;;;;14.75;78.88;100258.03;5043019;28;20302;-59
2022/06/21 06:14:37;;;;;;;11.27;4.90;;;;;;;14.64;79.10;100264.50;5042782;28;20276;-59
2022/06/21 06:17:23;;;;;;;8.80;5.00;;;;;;;14.59;79.81;100271.69;5042587;28;20326;-59
2022/06/21 06:19:59;;;;;;;10.37;4.50;;;;;;;14.55;79.32;100275.34;5042895;28;20288;-59
2022/06/21 06:22:38;;;;;;;10.63;4.00;;;;;;;14.48;79.17;100273.78;5043099;28;20294;-59
2022/06/21 06:25:17;;;;;;;8.67;4.50;;;;;;;14.40;80.00;100262.66;5042021;28;20313;-59
2022/06/21 06:27:59;;;;;;;5.93;3.92;;;;;;;14.45;79.61;100271.25;5041681;28;20450;-58
2022/06/21 06:30:37;;;;;;;5.83;4.20;;;;;;;14.38;80.11;100272.38;5042962;28;20111;-59
2022/06/21 06:33:16;;;;;;;7.43;5.07;;;;;;;14.43;80.27;100270.47;5042643;28;20772;-60
2022/06/21 06:35:49;;;;;;;6.17;4.23;;;;;;;14.49;79.89;100275.50;5042921;28;20318;-60
2022/06/21 06:38:22;;;;;;;8.30;4.33;;;;;;;14.34;79.88;100244.44;5042262;28;20300;-60
2022/06/21 06:40:57;;;;;;;10.60;4.57;;;;;;;14.42;79.14;100289.75;5042001;28;20280;-59
2022/06/21 06:43:33;;;;;;;10.97;4.60;;;;;;;14.36;79.13;100290.81;5041229;28;20276;-58
2022/06/21 06:46:05;;;;;;;6.60;4.17;;;;;;;14.27;79.13;100295.50;5040721;28;20315;-59
2022/06/21 06:48:41;;;;;;;10.40;4.70;;;;;;;14.22;79.57;100291.22;5040278;28;20889;-59
2022/06/21 06:51:39;;;;;;;10.67;4.73;;;;;;;14.19;79.60;100293.97;5041508;28;20498;-59
2022/06/21 06:54:17;;;;;;;8.18;5.10;;;;;;;14.10;79.73;100299.47;5042334;28;20287;-59
2022/06/21 06:56:56;;;;;;;11.43;4.38;;;;;;;14.07;80.16;100289.06;5042309;28;20046;-59
2022/06/21 06:59:27;;;;;;;6.13;4.00;;;;;;;14.01;80.59;100302.41;5042542;28;20287;-60
2022/06/21 07:02:02;;;;;;;7.43;4.50;;;;;;;14.04;80.93;100304.94;5041982;28;20296;-59
2022/06/21 07:04:37;;;;;;;10.13;4.37;;;;;;;13.98;81.09;100294.63;5041550;28;20292;-59
2022/06/21 07:07:15;;;;;;;14.53;4.63;;;;;;;14.04;81.04;100304.94;5039785;28;20358;-59
2022/06/21 07:09:52;;;;;;;9.75;4.63;;;;;;;14.00;81.12;100314.69;5040021;28;20486;-59
2022/06/21 07:12:27;;;;;;;6.47;3.97;;;;;;;13.87;81.40;100312.44;5042206;28;20075;-61
2022/06/21 07:14:59;;;;;;;9.75;4.15;;;;;;;13.85;81.64;100314.25;5046224;28;20348;-59
2022/06/21 07:17:35;;;;;;;9.40;4.32;;;;;;;13.87;81.50;100310.69;5045212;28;20067;-59
2022/06/21 07:20:19;;;;;;;8.27;4.55;;;;;;;13.89;81.33;100306.25;5045153;28;20236;-60
2022/06/21 07:22:52;;;;;;;6.90;3.83;;;;;;;13.94;81.33;100311.38;5045712;28;20107;-60
2022/06/21 07:25:32;;;;;;;8.13;3.97;;;;;;;13.87;81.12;100307.19;5044968;28;20068;-60
2022/06/21 07:28:10;;;;;;;6.27;3.73;;;;;;;13.76;81.12;100294.38;5045800;28;20119;-59
2022/06/21 07:30:44;;;;;;;6.53;4.17;;;;;;;13.93;81.09;100322.78;5044927;28;20338;-60
2022/06/21 07:33:20;;;;;;;10.90;4.00;;;;;;;13.75;81.09;100319.78;5045631;28;20298;-59
2022/06/21 07:35:54;;;;;;;5.97;4.03;;;;;;;13.77;81.35;100328.47;5044302;28;20482;-60
2022/06/21 07:38:32;;;;;;;7.07;3.28;;;;;;;13.78;81.62;100337.22;5046010;28;20284;-59
2022/06/21 07:41:11;;;;;;;7.07;3.63;;;;;;;13.60;81.25;100330.69;5045505;28;20091;-59
2022/06/21 07:43:46;;;;;;;6.25;3.92;;;;;;;13.55;81.58;100335.22;5042284;28;20300;-59
2022/06/21 07:46:22;;;;;;;7.63;3.67;;;;;;;13.43;82.15;100314.56;5045643;28;20069;-60
2022/06/21 07:48:57;;;;;;;9.13;4.10;;;;;;;13.44;81.45;100345.16;5044565;28;20316;-59
2022/06/21 07:51:35;;;;;;;6.70;3.40;;;;;;;13.40;81.79;100351.38;5043126;28;20321;-59
2022/06/21 07:54:11;;;;;;;8.15;3.33;;;;;;;13.31;81.55;100350.75;5043218;28;20060;-59
2022/06/21 07:56:48;;;;;;;6.55;2.90;;;;;;;13.18;82.01;100338.81;5045375;28;20060;-59
2022/06/21 07:59:23;;;;;;;5.05;2.88;;;;;;;13.22;82.16;100358.81;5044855;28;20055;-59
2022/06/21 08:07:41;;;;;;;6.35;3.15;;;;;;;13.17;82.38;100369.41;5043879;28;20228;-59
2022/06/21 08:10:19;;;;;;;7.93;3.50;;;;;;;13.16;82.55;100366.84;5042676;28;20113;-59
2022/06/21 08:12:52;;;;;;;5.93;3.20;;;;;;;13.22;82.93;100365.81;5044561;28;20076;-59
2022/06/21 08:15:28;;;;;;;8.32;3.25;;;;;;;13.25;82.88;100366.59;5045442;28;20052;-59
2022/06/21 08:18:04;;;;;;;7.90;3.78;;;;;;;13.26;82.66;100367.47;5045338;28;20067;-59
2022/06/21 08:20:41;;;;;;;5.88;3.92;;;;;;;13.19;82.86;100360.66;5044987;28;20061;-59
2022/06/21 08:23:17;;;;;;;6.82;3.35;;;;;;;13.20;82.86;100368.47;5044323;28;20056;-60
2022/06/21 08:25:56;;;;;;;11.73;3.65;;;;;;;12.76;83.09;100294.41;5044618;28;20061;-60
2022/06/21 08:28:33;;;;;;;5.82;3.22;;;;;;;13.21;83.47;100364.97;5042674;28;20328;-60
2022/06/21 08:31:10;;;;;;;5.78;2.72;;;;;;;13.23;82.99;100359.66;5042708;28;20079;-60
2022/06/21 08:33:46;;;;;;;6.13;3.53;;;;;;;13.22;82.67;100366.69;5044587;28;20065;-60
2022/06/21 08:36:20;;;;;;;5.47;3.10;;;;;;;13.19;82.42;100365.91;5044868;28;20107;-58
2022/06/21 08:38:56;;;;;;;5.63;3.05;;;;;;;13.20;82.39;100372.88;5044567;28;20060;-58
2022/06/21 08:41:58;;;;;;;4.30;3.03;;;;;;;13.17;82.68;100368.56;5040378;28;20179;-59
2022/06/21 08:48:40;;;;;;;3.67;2.42;;;;;;;13.06;82.97;100371.47;5041359;28;20053;-60
2022/06/21 08:51:45;;;;;;;8.13;3.05;;;;;;;13.02;83.15;100368.94;5043426;28;20060;-60
2022/06/21 08:54:26;;;;;;;6.85;3.47;;;;;;;12.57;83.02;100303.63;5042804;28;20271;-60
2022/06/21 08:57:11;;;;;;;6.50;3.15;;;;;;;12.98;83.37;100372.53;5043345;28;20057;-59
2022/06/21 08:59:58;;;;;;;8.23;3.75;;;;;;;12.85;83.63;100364.97;5043551;28;20568;-61
2022/06/21 09:02:41;;;;;;;8.60;3.30;;;;;;;12.88;83.98;100383.28;5044343;28;20053;-59
2022/06/21 09:05:22;;;;;;;5.95;3.55;;;;;;;12.81;84.15;100375.59;5043279;28;20131;-59
2022/06/21 09:08:22;;;;;;;7.43;3.22;;;;;;;12.79;84.07;100378.25;5043432;28;20049;-59
2022/06/21 09:11:04;;;;;;;6.32;3.13;;;;;;;12.77;84.55;100380.03;5043806;28;20067;-58
2022/06/21 09:13:52;;;;;;;4.43;3.10;;;;;;;12.72;84.44;100374.03;5043274;28;20108;-59
2022/06/21 09:16:31;;;;;;;9.77;3.28;;;;;;;12.65;84.62;100381.16;5043658;28;20061;-59
2022/06/21 09:19:13;;;;;;;7.95;3.13;;;;;;;12.67;84.58;100389.00;5042518;28;20064;-59
2022/06/21 09:21:56;;;;;;;6.55;3.70;;;;;;;12.67;84.74;100395.09;5041913;28;20320;-59
2022/06/21 09:24:40;;;;;;;6.60;3.28;;;;;;;12.62;84.66;100390.88;5043945;28;20080;-59
2022/06/21 09:27:19;;;;;;;9.13;3.35;;;;;;;12.58;85.12;100383.97;5043407;28;20097;-59
2022/06/21 09:30:04;;;;;;;7.47;3.67;;;;;;;12.58;85.36;100383.97;5043382;28;20076;-59
2022/06/21 09:32:52;;;;;;;8.85;3.33;;;;;;;12.60;85.52;100384.78;5043346;28;20072;-59
2022/06/21 09:35:34;;;;;;;8.43;3.28;;;;;;;12.59;85.50;100380.47;5043423;28;20112;-58
2022/06/21 09:38:20;;;;;;;5.63;3.10;;;;;;;12.50;85.69;100377.16;5042897;28;20077;-60
2022/06/21 09:40:59;;;;;;;6.47;3.50;;;;;;;12.43;85.82;100374.69;5043237;28;20076;-60
2022/06/21 09:43:42;;;;;;;6.85;3.30;;;;;;;12.41;86.06;100377.34;5043412;28;20056;-59
2022/06/21 09:46:24;;;;;;;5.63;3.30;;;;;;;12.38;86.29;100387.91;5041594;28;20819;-59
2022/06/21 09:49:06;;;;;;;6.53;3.30;;;;;;;12.38;86.25;100398.41;5042493;28;20344;-59
2022/06/21 09:51:45;;;;;;;5.97;3.10;;;;;;;12.25;86.52;100383.81;5042667;28;20389;-59
2022/06/21 09:54:28;;;;;;;5.85;2.90;;;;;;;12.27;86.28;100401.22;5042873;28;20049;-59
2022/06/21 09:57:09;;;;;;;6.32;3.20;;;;;;;12.27;86.80;100400.38;5043243;28;20046;-59
2022/06/21 09:59:47;;;;;;;5.47;3.05;;;;;;;12.17;86.56;100390.97;5040266;28;20096;-60
2022/06/21 10:02:25;;;;;;;6.63;3.13;;;;;;;12.16;86.77;100397.13;5042185;28;20375;-59
2022/06/21 10:05:08;;;;;;;4.32;2.65;;;;;;;12.05;86.85;100392.94;5041791;28;20286;-59
2022/06/21 10:07:58;;;;;;;4.13;2.97;;;;;;;11.97;87.36;100387.00;5041044;28;20060;-60
2022/06/21 10:10:46;;;;;;;6.53;3.25;;;;;;;11.93;87.74;100395.84;5042353;28;20218;-60
2022/06/21 10:13:32;;;;;;;7.10;3.13;;;;;;;11.88;87.91;100397.66;5041763;28;20062;-60
2022/06/21 10:16:23;;;;;;;4.45;2.85;;;;;;;11.84;87.88;100409.91;5042944;28;20076;-60
2022/06/21 10:19:07;;;;;;;3.38;2.45;;;;;;;11.60;88.06;100358.88;5041024;28;20065;-60
2022/06/21 10:22:09;;;;;;;5.13;2.58;;;;;;;11.67;88.14;100383.19;5040051;28;20060;-60
2022/06/21 10:25:08;;;;;;;6.80;3.28;;;;;;;11.78;87.91;100398.69;5040349;28;20049;-59
2022/06/21 10:28:02;;;;;;;5.88;2.80;;;;;;;11.74;88.29;100405.75;5042392;28;20053;-60
2022/06/21 10:30:54;;;;;;;7.20;2.78;;;;;;;11.72;88.43;100406.69;5040639;28;20116;-59
2022/06/21 10:33:51;;;;;;;6.13;3.70;;;;;;;11.75;89.04;100409.22;5042777;28;20337;-59
2022/06/21 10:36:53;;;;;;;6.75;3.22;;;;;;;11.74;89.06;100412.75;5040627;28;20067;-59
2022/06/21 10:40:02;;;;;;;8.40;4.03;;;;;;;11.68;89.16;100416.31;5039678;28;20370;-59
2022/06/21 10:43:02;;;;;;;7.80;3.90;;;;;;;11.65;89.41;100417.25;5036228;28;20074;-59
2022/06/21 10:45:43;;;;;;;7.45;3.13;;;;;;;11.38;89.42;100386.34;5041430;28;20344;-59
2022/06/21 10:48:46;;;;;;;12.50;4.60;;;;;;;11.58;89.79;100430.47;5045210;28;20371;-59
2022/06/21 10:51:27;;;;;;;6.47;3.83;;;;;;;11.56;90.17;100417.44;5045400;28;20041;-59
2022/06/21 10:54:29;;;;;;;5.70;3.78;;;;;;;11.54;90.19;100419.22;5044591;28;20112;-58
2022/06/21 10:57:14;;;;;;;7.00;3.58;;;;;;;11.37;90.46;100405.56;5046548;28;20049;-58
2022/06/21 11:03:47;;;;;;;11.82;4.00;;;;;;;11.29;91.28;100418.78;5043688;28;20067;-59
2022/06/21 11:06:28;;;;;;;11.57;4.70;;;;;;;11.51;91.50;100445.44;5045265;28;20288;-59
2022/06/21 11:09:08;;;;;;;7.03;3.45;;;;;;;11.51;91.18;100460.28;5046353;28;20294;-59
2022/06/21 11:11:46;;;;;;;5.43;3.70;;;;;;;11.41;91.21;100470.03;5045948;28;20084;-59
2022/06/21 11:14:32;;;;;;;5.55;3.47;;;;;;;11.38;91.67;100463.09;5045133;28;20049;-58
2022/06/21 11:17:13;;;;;;;11.77;3.90;;;;;;;11.40;92.02;100461.28;5046249;28;20148;-58
2022/06/21 11:19:53;;;;;;;6.05;3.75;;;;;;;11.41;92.07;100454.34;5046452;28;20061;-58
2022/06/21 11:22:37;;;;;;;7.68;3.95;;;;;;;11.37;91.95;100468.34;5046192;28;20080;-58
2022/06/21 11:25:22;;;;;;;10.90;3.83;;;;;;;11.21;92.05;100458.13;5046279;28;20108;-60
2022/06/21 11:28:07;;;;;;;5.53;3.85;;;;;;;11.21;92.21;100463.38;5046045;28;20075;-59
2022/06/21 11:30:48;;;;;;;8.40;3.83;;;;;;;11.05;92.87;100440.09;5045875;28;20056;-58
2022/06/21 11:33:31;;;;;;;9.68;3.72;;;;;;;11.25;93.02;100463.31;5045559;28;20374;-60
2022/06/21 11:36:13;;;;;;;10.80;3.80;;;;;;;11.23;93.20;100460.72;5044495;28;20053;-59
2022/06/21 11:39:03;;;;;;;13.93;3.65;;;;;;;11.17;93.25;100445.97;5045706;28;20069;-59
2022/06/21 11:42:08;;;;;;;7.85;3.17;;;;;;;11.18;93.19;100458.19;5045508;28;20235;-59
2022/06/21 11:45:02;;;;;;;11.38;3.50;;;;;;;11.06;93.27;100453.16;5045779;28;20061;-59
2022/06/21 11:47:54;;;;;;;5.28;2.97;;;;;;;11.04;93.63;100449.69;5025310;28;20394;-59
2022/06/21 11:50:27;;;;;;;8.63;3.40;;;;;;;11.03;93.89;100453.16;5045492;28;20127;-59
2022/06/21 11:53:29;;;;;;;5.40;3.13;;;;;;;11.07;93.96;100449.63;5045836;28;20075;-58
2022/06/21 11:56:05;;;;;;;4.57;2.78;;;;;;;10.99;94.14;100430.59;5040428;28;20128;-58
2022/06/21 11:58:42;;;;;;;6.03;3.28;;;;;;;11.03;94.06;100442.72;5041816;28;20061;-59
2022/06/21 12:01:21;;;;;;;9.02;3.35;;;;;;;10.99;94.01;100435.81;5043746;28;20068;-58
2022/06/21 12:04:24;;;;;;;5.22;3.22;;;;;;;11.01;94.12;100450.59;5045348;28;20052;-58
2022/06/21 12:07:03;;;;;;;7.97;3.45;;;;;;;11.15;94.13;100463.44;5045154;28;20045;-59
2022/06/21 12:09:41;;;;;;;9.35;3.40;;;;;;;11.13;93.93;100454.78;5043715;28;20050;-58
2022/06/21 12:12:43;;;;;;;6.40;3.03;;;;;;;11.16;93.86;100462.56;5044397;28;20061;-59
2022/06/21 12:15:40;;;;;;;7.78;3.15;;;;;;;11.16;93.68;100470.44;5043846;28;20676;-59
2022/06/21 12:18:16;;;;;;;6.28;3.22;;;;;;;11.22;93.73;100465.09;5044364;28;20047;-58
2022/06/21 12:20:51;;;;;;;5.10;3.22;;;;;;;11.27;93.45;100472.00;5044396;28;20047;-58
2022/06/21 12:23:28;;;;;;;8.88;3.60;;;;;;;11.20;93.29;100456.38;5043579;28;20065;-59
2022/06/21 12:25:59;;;;;;;9.40;3.42;;;;;;;11.34;93.09;100468.41;5045176;28;20125;-59
2022/06/21 12:28:35;;;;;;;10.82;3.05;;;;;;;11.33;92.67;100482.34;5044055;28;20053;-59
2022/06/21 12:31:22;;;;;;;3.72;2.85;;;;;;;11.30;92.70;100466.72;5044347;28;20354;-59
2022/06/21 12:33:58;;;;;;;6.97;3.13;;;;;;;11.22;92.62;100475.53;5044643;28;20057;-59